JST weather

John Murtha Johnstown Cambria County Airport
Johnstown, Pennsylvania, United States

Public forecast

Using degrees Fahrenheit for public forecast. Weather courtesy of forecast.io.

Current aviation weather report (METAR) for John Murtha Johnstown Cambria County Airport

Retrieved 2019/11/19 10:54 UTC (50 minutes ago):

KJST 191054Z AUTO 25007KT 9SM CLR 00/M03 A2971 RMK AO2 SLP080 T00001028

Aviation forecast (TAF) for John Murtha Johnstown Cambria County Airport

Retrieved 2019/11/19 06:00 UTC (6 hours ago):

TAF KJST 190558Z 1906/2006 22005KT P6SM SKC FM191300 26006KT P6SM BKN025 FM192300 30004KT P6SM VCSH OVC015